Terminal Aerodrome Forecast
Issued by NWS

Home | Current Version | Previous Version | Text Only | Print | Product List | Glossary On
Versions: 1 2 3 4 5 6 7 8 9 10 11 12 13 14 15
000
FTUS45 KABQ 191131
TAFLVS
TAF
KLVS 191131Z 1912/2012 01006KT P6SM BKN200
     FM191800 26010G18KT P6SM BKN200
     FM192100 27014G24KT P6SM SCT200
     FM200200 24010KT P6SM SCT200=

USA.gov is the U.S. government's official web portal to all federal, state and local government web resources and services.